Fort Drum, Wheeler-Sack Army Airfield (KGTB)

NameWheeler-Sack Army Airfield
CityFort Drum
CountryUnited States
ICAOKGTB
IATA
Altitude64 m
CoordinatesGoogle Map
Live Air TrafficLiveATC.net
METARKGTB 200356Z AUTO 13006KT 10SM CLR 03/02 A2998 RMK AO2 SLP157 T00330015 $
2019-10-20 03:56:00 Wind: East-Southeast (130°) 3.09 m/s - Visibility: 16093.4 m - Temperature: 3 °C - Dew point: 2 °C - Humidity: 93.2% - Pressure: 1015.24 hPa
Statistics

The table below shows the detailed information of all flights to/from Fort Drum, Wheeler-Sack Army Airfield (KGTB).